Time;durP1;ratioP1;P1;durP2;ratioP2;P2;SDS_P1;SDS_P2;PMS_P1;PMS_P2;Temp;Humidity;BMP_temperature;BMP_pressure;BME280_temperature;BME280_humidity;BME280_pressure;Samples;Min_cycle;Max_cycle;Signal;HPM_P1;HPM_P2
2022/11/15 00:00:52;;;;;;;55.88;19.70;;;;;;;6.05;100.00;100733.78;5029931;28;20424;-84
2022/11/15 00:03:20;;;;;;;44.75;19.05;;;;;;;6.08;100.00;100741.31;5029891;28;20025;-84
2022/11/15 00:05:45;;;;;;;47.35;20.83;;;;;;;6.08;100.00;100730.66;5046612;28;20514;-84
2022/11/15 00:08:11;;;;;;;52.23;21.43;;;;;;;6.17;100.00;100733.78;5050133;28;20029;-84
2022/11/15 00:10:37;;;;;;;44.85;19.90;;;;;;;6.18;100.00;100725.59;5049973;28;20094;-84
2022/11/15 00:13:09;;;;;;;45.63;20.50;;;;;;;6.20;100.00;100728.00;5050080;28;20104;-84
2022/11/15 00:15:39;;;;;;;43.83;20.00;;;;;;;6.26;100.00;100731.59;5049289;28;20039;-84
2022/11/15 00:18:05;;;;;;;47.95;19.80;;;;;;;6.28;100.00;100726.84;5050053;28;20041;-84
2022/11/15 00:20:33;;;;;;;41.97;20.70;;;;;;;6.34;100.00;100729.41;5050338;28;20017;-84
2022/11/15 00:22:58;;;;;;;47.13;19.05;;;;;;;6.39;100.00;100734.03;5044274;28;20033;-84
2022/11/15 00:25:24;;;;;;;42.93;19.53;;;;;;;6.35;100.00;100715.06;5046886;28;20025;-84
2022/11/15 00:27:51;;;;;;;38.23;18.33;;;;;;;6.48;100.00;100723.84;5045755;28;20420;-84
2022/11/15 00:30:17;;;;;;;37.05;18.38;;;;;;;6.52;100.00;100725.00;5046587;28;20076;-85
2022/11/15 00:32:42;;;;;;;42.70;19.48;;;;;;;6.56;100.00;100715.50;5060003;28;20025;-84
2022/11/15 00:35:08;;;;;;;39.00;18.17;;;;;;;6.55;100.00;100713.09;5049674;28;20044;-84
2022/11/15 00:37:33;;;;;;;39.20;18.77;;;;;;;6.46;100.00;100701.97;5049991;28;20369;-84
2022/11/15 00:39:58;;;;;;;40.50;17.47;;;;;;;6.67;100.00;100727.97;5065283;28;20041;-84
2022/11/15 00:42:24;;;;;;;40.00;18.80;;;;;;;6.76;100.00;100731.09;5049737;28;20036;-84
2022/11/15 00:44:49;;;;;;;38.17;17.53;;;;;;;6.75;100.00;100718.03;5048232;28;20103;-84
2022/11/15 00:47:14;;;;;;;33.67;18.07;;;;;;;6.82;100.00;100711.50;5048846;28;20029;-84
2022/11/15 00:49:40;;;;;;;33.37;17.23;;;;;;;6.84;100.00;100721.94;5048724;28;20757;-83
2022/11/15 00:52:06;;;;;;;33.70;16.77;;;;;;;6.84;100.00;100715.81;5050082;28;20140;-84
2022/11/15 00:54:31;;;;;;;37.13;17.30;;;;;;;6.85;100.00;100704.09;5047737;28;20406;-84
2022/11/15 00:56:56;;;;;;;34.77;16.03;;;;;;;6.92;100.00;100704.78;5049920;28;20021;-84
2022/11/15 00:59:22;;;;;;;34.50;16.60;;;;;;;6.92;100.00;100699.47;5047511;28;20032;-84
2022/11/15 01:01:47;;;;;;;33.27;16.63;;;;;;;6.99;100.00;100708.13;5049560;28;20033;-84
2022/11/15 01:04:13;;;;;;;33.43;16.77;;;;;;;6.98;100.00;100703.81;5048318;28;20032;-84
2022/11/15 01:06:39;;;;;;;34.97;17.07;;;;;;;7.04;100.00;100704.72;5049864;28;20761;-84
2022/11/15 01:09:04;;;;;;;32.92;16.05;;;;;;;7.07;100.00;100718.41;5049893;28;20053;-84
2022/11/15 01:11:29;;;;;;;33.53;17.30;;;;;;;7.05;100.00;100703.69;5048815;28;20041;-84
2022/11/15 01:13:55;;;;;;;35.23;17.43;;;;;;;7.12;100.00;100713.16;5051173;28;20027;-84
2022/11/15 01:16:20;;;;;;;32.13;16.70;;;;;;;7.16;100.00;100707.34;5053539;28;20483;-84
2022/11/15 01:18:46;;;;;;;34.07;16.77;;;;;;;7.17;100.00;100704.47;5052489;28;20047;-84
2022/11/15 01:21:17;;;;;;;31.47;16.60;;;;;;;7.12;100.00;100691.84;5052761;28;20694;-84
2022/11/15 01:23:42;;;;;;;31.90;16.42;;;;;;;7.22;100.00;100696.56;5052330;28;20040;-83
2022/11/15 01:26:12;;;;;;;34.83;16.90;;;;;;;7.26;100.00;100694.25;5033541;28;20428;-84
2022/11/15 01:28:39;;;;;;;42.97;18.55;;;;;;;7.24;100.00;100683.78;5040403;28;20116;-84
2022/11/15 01:31:09;;;;;;;35.78;17.73;;;;;;;7.24;100.00;100683.00;5052773;28;20040;-84
2022/11/15 01:33:38;;;;;;;30.65;16.23;;;;;;;7.24;100.00;100677.66;5052759;28;20033;-84
2022/11/15 01:36:09;;;;;;;38.70;17.63;;;;;;;7.26;100.00;100681.72;5051968;28;20477;-84
2022/11/15 01:38:35;;;;;;;37.08;17.95;;;;;;;7.21;100.00;100668.28;5035335;28;20052;-84
2022/11/15 01:41:00;;;;;;;36.53;16.70;;;;;;;7.23;100.00;100668.06;5053034;28;20047;-84
2022/11/15 01:43:29;;;;;;;38.53;17.33;;;;;;;7.25;100.00;100672.09;5052679;28;20570;-84
2022/11/15 01:46:16;;;;;;;30.60;15.65;;;;;;;7.25;100.00;100680.09;5051113;28;20188;-84
2022/11/15 01:48:42;;;;;;;34.05;16.67;;;;;;;7.33;100.00;100678.88;5052846;28;20025;-84
2022/11/15 01:51:12;;;;;;;37.80;17.37;;;;;;;7.33;100.00;100670.88;5052297;28;20028;-84
2022/11/15 01:53:40;;;;;;;38.13;17.25;;;;;;;7.43;100.00;100681.75;5053029;28;20083;-85
2022/11/15 01:56:09;;;;;;;40.65;18.67;;;;;;;7.42;100.00;100664.13;5051425;28;20043;-84
2022/11/15 01:58:35;;;;;;;37.55;17.48;;;;;;;7.48;100.00;100670.34;5052103;28;20373;-84
2022/11/15 02:01:01;;;;;;;38.70;18.00;;;;;;;7.60;100.00;100675.63;5034349;28;20021;-84
2022/11/15 02:03:35;;;;;;;38.13;18.13;;;;;;;7.66;100.00;100676.50;5052009;28;20282;-84
2022/11/15 02:06:03;;;;;;;38.03;17.55;;;;;;;7.66;100.00;100668.50;5050983;28;20025;-84
2022/11/15 02:08:29;;;;;;;42.90;17.73;;;;;;;7.76;100.00;100673.22;5067479;28;20040;-84
2022/11/15 02:10:54;;;;;;;36.47;17.63;;;;;;;7.78;100.00;100660.44;5050232;28;20025;-84
2022/11/15 02:13:19;;;;;;;36.00;16.73;;;;;;;7.84;100.00;100656.81;5050985;28;20033;-84
2022/11/15 02:16:05;;;;;;;37.70;18.80;;;;;;;7.93;100.00;100657.22;5053915;28;20029;-84
2022/11/15 02:18:35;;;;;;;32.87;17.10;;;;;;;7.98;100.00;100662.59;5052129;28;20287;-84
2022/11/15 02:21:28;;;;;;;36.15;17.83;;;;;;;8.06;100.00;100658.69;5051601;28;20496;-84
2022/11/15 02:24:24;;;;;;;44.20;17.63;;;;;;;8.11;100.00;100664.13;5051653;28;20036;-84
2022/11/15 02:26:52;;;;;;;39.45;17.70;;;;;;;8.16;100.00;100661.53;5033661;28;20037;-84
2022/11/15 02:29:34;;;;;;;41.05;19.02;;;;;;;8.22;100.00;100657.06;5046760;28;20116;-84
2022/11/15 02:32:08;;;;;;;41.13;18.40;;;;;;;8.26;100.00;100656.31;5051923;28;20029;-84
2022/11/15 02:34:33;;;;;;;38.00;17.40;;;;;;;8.30;100.00;100654.78;5050364;28;20110;-84
2022/11/15 02:37:23;;;;;;;38.57;17.47;;;;;;;8.35;100.00;100656.72;5052023;28;20090;-84
2022/11/15 02:40:07;;;;;;;35.78;17.50;;;;;;;8.37;100.00;100657.28;5051483;28;20025;-84
2022/11/15 02:45:27;;;;;;;42.38;18.25;;;;;;;8.45;100.00;100656.03;5051960;28;20125;-84
2022/11/15 02:47:56;;;;;;;37.63;18.87;;;;;;;8.51;100.00;100656.94;5051602;28;20472;-84
2022/11/15 02:50:26;;;;;;;38.13;19.08;;;;;;;8.55;100.00;100648.19;5050959;28;20021;-84
2022/11/15 02:52:51;;;;;;;42.25;18.88;;;;;;;8.52;100.00;100642.53;5041905;28;20032;-84
2022/11/15 02:55:36;;;;;;;40.27;18.30;;;;;;;8.63;100.00;100650.41;5051323;28;20029;-84
2022/11/15 02:58:23;;;;;;;35.85;17.65;;;;;;;8.63;100.00;100645.06;5045348;28;20025;-85
2022/11/15 03:00:54;;;;;;;41.53;18.67;;;;;;;8.67;100.00;100633.91;5050954;28;20078;-85
2022/11/15 03:04:00;;;;;;;39.35;19.83;;;;;;;8.67;100.00;100632.03;5050968;28;20116;-86
2022/11/15 03:06:34;;;;;;;36.10;17.25;;;;;;;8.70;100.00;100628.84;5063371;28;20036;-85
2022/11/15 03:09:18;;;;;;;39.08;18.92;;;;;;;8.72;100.00;100625.94;5066253;28;20037;-85
2022/11/15 03:11:54;;;;;;;34.03;17.02;;;;;;;8.71;100.00;100627.00;5067342;28;20041;-85
2022/11/15 03:14:40;;;;;;;32.67;17.37;;;;;;;8.66;100.00;100617.06;5066786;28;20127;-85
2022/11/15 03:17:28;;;;;;;34.47;17.00;;;;;;;8.69;100.00;100626.44;5061104;28;20835;-84
2022/11/15 03:19:56;;;;;;;38.38;18.70;;;;;;;8.74;100.00;100623.84;5057752;28;20033;-85
2022/11/15 03:22:25;;;;;;;37.40;17.77;;;;;;;8.76;100.00;100616.38;5049743;28;20021;-85
2022/11/15 03:24:55;;;;;;;34.83;17.17;;;;;;;8.73;100.00;100625.69;5049250;28;20437;-84
2022/11/15 03:27:25;;;;;;;41.67;18.40;;;;;;;8.86;100.00;100623.69;5049519;28;20813;-85
2022/11/15 03:29:58;;;;;;;38.25;18.75;;;;;;;8.89;100.00;100620.50;5020544;28;20083;-85
2022/11/15 03:32:27;;;;;;;36.78;18.23;;;;;;;8.87;100.00;100615.44;5050673;28;20040;-86
2022/11/15 03:34:58;;;;;;;40.58;20.92;;;;;;;8.90;100.00;100617.59;5041748;28;20084;-85
2022/11/15 03:37:32;;;;;;;33.67;17.43;;;;;;;8.87;100.00;100612.75;5029846;28;20026;-86
2022/11/15 03:39:57;;;;;;;36.00;17.83;;;;;;;9.00;100.00;100637.44;5043082;28;20295;-85
2022/11/15 03:42:28;;;;;;;40.85;19.00;;;;;;;9.01;100.00;100628.38;5046124;28;20025;-86
2022/11/15 03:45:02;;;;;;;43.50;19.33;;;;;;;8.96;100.00;100625.66;5030900;28;20473;-86
2022/11/15 03:47:43;;;;;;;41.43;18.97;;;;;;;9.00;100.00;100622.25;5030780;28;20029;-85
2022/11/15 03:50:16;;;;;;;42.60;20.20;;;;;;;9.09;100.00;100630.63;5045646;28;20306;-85
2022/11/15 03:52:44;;;;;;;53.47;20.73;;;;;;;9.13;100.00;100636.25;5050819;28;20028;-85
2022/11/15 03:55:13;;;;;;;45.33;21.48;;;;;;;9.07;100.00;100624.72;5050504;28;20064;-86
2022/11/15 03:57:39;;;;;;;47.65;21.30;;;;;;;9.14;100.00;100625.28;5046227;28;20025;-85
2022/11/15 04:00:05;;;;;;;49.80;22.13;;;;;;;9.14;100.00;100621.81;5044331;28;20610;-86
2022/11/15 04:02:31;;;;;;;40.22;19.58;;;;;;;9.13;100.00;100621.00;5049252;28;20032;-85
2022/11/15 04:04:56;;;;;;;42.13;20.23;;;;;;;9.13;100.00;100629.03;5050850;28;20029;-85
2022/11/15 04:07:21;;;;;;;42.08;20.35;;;;;;;9.09;100.00;100610.03;5049700;28;20047;-85
2022/11/15 04:10:02;;;;;;;46.40;20.30;;;;;;;9.12;100.00;100602.56;5049310;28;20100;-85
2022/11/15 04:12:31;;;;;;;46.05;19.50;;;;;;;9.13;100.00;100615.66;5050274;28;20029;-86
2022/11/15 04:15:08;;;;;;;47.40;20.83;;;;;;;9.18;100.00;100615.72;5049344;28;20039;-86
2022/11/15 04:17:42;;;;;;;44.23;20.27;;;;;;;9.12;100.00;100606.06;5050330;28;20276;-86
2022/11/15 04:25:44;;;;;;;45.97;19.55;;;;;;;9.18;100.00;100613.03;5050504;28;20076;-85
2022/11/15 04:28:11;;;;;;;45.20;19.85;;;;;;;9.19;100.00;100611.97;5047225;28;20021;-86
2022/11/15 04:30:37;;;;;;;41.53;19.33;;;;;;;9.16;100.00;100620.50;5014908;28;20045;-85
2022/11/15 04:33:03;;;;;;;43.37;19.73;;;;;;;9.17;100.00;100619.44;5045659;28;20398;-88
2022/11/15 04:35:28;;;;;;;44.70;21.17;;;;;;;9.20;100.00;100610.13;5048031;28;20116;-85
2022/11/15 04:37:58;;;;;;;48.95;21.30;;;;;;;9.20;100.00;100615.47;5049757;28;20044;-85
2022/11/15 04:40:23;;;;;;;46.93;20.37;;;;;;;9.19;100.00;100625.34;5048403;28;20586;-86
2022/11/15 04:42:48;;;;;;;48.25;20.85;;;;;;;9.13;100.00;100615.66;5023014;28;20041;-85
2022/11/15 04:45:14;;;;;;;50.63;21.33;;;;;;;9.22;100.00;100622.19;5030072;28;20029;-86
2022/11/15 04:47:39;;;;;;;52.40;23.40;;;;;;;9.20;100.00;100629.63;5038380;28;20468;-85
2022/11/15 04:50:05;;;;;;;41.50;20.20;;;;;;;9.24;100.00;100628.09;5053012;28;20037;-84
2022/11/15 04:52:30;;;;;;;46.40;20.00;;;;;;;9.21;100.00;100631.25;5053247;28;20066;-82
2022/11/15 04:54:56;;;;;;;46.47;20.60;;;;;;;9.20;100.00;100628.84;5053777;28;20369;-83
2022/11/15 04:57:21;;;;;;;46.70;19.73;;;;;;;9.19;100.00;100625.34;5051670;28;20025;-82
2022/11/15 04:59:47;;;;;;;46.20;19.50;;;;;;;9.16;100.00;100623.19;5050938;28;20040;-82
2022/11/15 05:02:13;;;;;;;43.67;20.13;;;;;;;9.16;100.00;100619.72;5053302;28;20275;-82
2022/11/15 05:04:39;;;;;;;50.83;20.98;;;;;;;9.16;100.00;100609.81;5053718;28;20035;-82
2022/11/15 05:07:04;;;;;;;48.27;19.87;;;;;;;9.16;100.00;100615.16;5053467;28;20029;-83
2022/11/15 05:09:29;;;;;;;42.78;20.17;;;;;;;9.15;100.00;100610.88;5041060;28;20033;-82
2022/11/15 05:11:55;;;;;;;44.27;20.27;;;;;;;9.17;100.00;100622.13;5032977;28;20104;-82
2022/11/15 05:14:20;;;;;;;41.67;18.93;;;;;;;9.15;100.00;100618.88;5033315;28;20370;-82
2022/11/15 05:16:45;;;;;;;39.90;18.37;;;;;;;9.13;100.00;100607.63;5033645;28;20079;-82
2022/11/15 05:19:11;;;;;;;40.00;19.07;;;;;;;9.12;100.00;100619.41;5027015;28;20445;-83
2022/11/15 05:21:36;;;;;;;40.67;18.92;;;;;;;9.15;100.00;100624.25;5052836;28;20025;-82
2022/11/15 05:24:02;;;;;;;41.40;18.93;;;;;;;9.17;100.00;100610.63;5051283;28;20133;-82
2022/11/15 05:26:27;;;;;;;41.10;19.02;;;;;;;9.15;100.00;100610.88;5052235;28;20028;-82
2022/11/15 05:28:55;;;;;;;43.93;19.43;;;;;;;9.18;100.00;100620.28;5052228;28;20581;-82
2022/11/15 05:31:20;;;;;;;43.15;19.85;;;;;;;9.20;100.00;100615.47;5052183;28;20028;-82
2022/11/15 05:33:45;;;;;;;48.17;20.17;;;;;;;9.20;100.00;100607.47;5052663;28;20028;-82
2022/11/15 05:36:18;;;;;;;50.53;21.23;;;;;;;9.19;100.00;100597.81;5050987;28;20025;-82
2022/11/15 05:38:45;;;;;;;46.43;21.27;;;;;;;9.20;100.00;100602.13;5051875;28;20075;-82
2022/11/15 05:41:12;;;;;;;45.93;18.97;;;;;;;9.11;100.00;100588.41;5052277;28;20279;-82
2022/11/15 05:43:39;;;;;;;44.65;19.65;;;;;;;9.17;100.00;100598.06;5052848;28;20032;-82
2022/11/15 05:46:05;;;;;;;39.95;20.38;;;;;;;9.19;100.00;100598.63;5051422;28;20037;-82
2022/11/15 05:48:32;;;;;;;45.33;19.48;;;;;;;9.22;100.00;100600.00;5052301;28;20025;-83
2022/11/15 05:50:58;;;;;;;40.67;19.75;;;;;;;9.15;100.00;100594.03;5034795;28;20033;-82
2022/11/15 05:53:25;;;;;;;45.83;18.27;;;;;;;9.19;100.00;100595.94;5052345;28;20089;-83
2022/11/15 05:55:51;;;;;;;45.13;18.43;;;;;;;9.21;100.00;100601.84;5052834;28;20112;-82
2022/11/15 05:58:17;;;;;;;40.77;18.77;;;;;;;9.19;100.00;100603.97;5046581;28;20365;-83
2022/11/15 06:00:43;;;;;;;39.65;18.25;;;;;;;9.18;100.00;100613.03;5056384;28;20544;-82
2022/11/15 06:03:08;;;;;;;44.67;18.90;;;;;;;9.21;100.00;100607.19;5056837;28;20063;-82
2022/11/15 06:05:34;;;;;;;41.50;18.98;;;;;;;9.21;100.00;100619.78;5055798;28;20055;-82
2022/11/15 06:08:00;;;;;;;40.77;18.50;;;;;;;9.16;100.00;100619.72;5050067;28;20061;-83
2022/11/15 06:10:26;;;;;;;38.97;18.07;;;;;;;9.21;100.00;100617.88;5051911;28;20112;-83
2022/11/15 06:13:02;;;;;;;40.88;19.48;;;;;;;9.25;100.00;100623.53;5052604;28;20583;-84
2022/11/15 06:15:27;;;;;;;47.00;18.77;;;;;;;9.29;100.00;100626.53;5044776;28;20446;-83
2022/11/15 06:17:57;;;;;;;44.77;18.93;;;;;;;9.32;100.00;100618.78;5051285;28;20035;-83
2022/11/15 06:20:24;;;;;;;50.03;21.70;;;;;;;9.37;100.00;100623.38;5050784;28;20098;-84
2022/11/15 06:22:49;;;;;;;48.33;20.55;;;;;;;9.36;100.00;100627.09;5052181;28;20047;-83
2022/11/15 06:25:14;;;;;;;43.23;19.50;;;;;;;9.33;100.00;100624.94;5032633;28;20493;-83
2022/11/15 06:27:40;;;;;;;45.43;18.93;;;;;;;9.34;100.00;100630.03;5052266;28;20028;-84
2022/11/15 06:30:08;;;;;;;44.17;18.88;;;;;;;9.32;100.00;100626.81;5049226;28;20060;-84
2022/11/15 06:32:33;;;;;;;43.57;19.67;;;;;;;9.33;100.00;100622.25;5036170;28;20453;-84
2022/11/15 06:34:58;;;;;;;44.70;19.55;;;;;;;9.34;100.00;100632.72;5034734;28;20120;-84
2022/11/15 06:37:24;;;;;;;46.73;20.87;;;;;;;9.32;100.00;100634.00;5051938;28;20032;-84
2022/11/15 06:39:49;;;;;;;42.13;19.30;;;;;;;9.37;100.00;100642.09;5042514;28;20036;-83
2022/11/15 06:42:14;;;;;;;45.50;19.33;;;;;;;9.31;100.00;100627.88;5038505;28;20557;-84
2022/11/15 06:44:39;;;;;;;44.77;18.97;;;;;;;9.29;100.00;100627.31;5038572;28;20135;-83
2022/11/15 06:47:07;;;;;;;44.37;19.07;;;;;;;9.29;100.00;100646.03;5049041;28;20357;-84
2022/11/15 06:49:32;;;;;;;40.33;18.30;;;;;;;9.29;100.00;100648.69;5031198;28;20499;-84
2022/11/15 06:51:57;;;;;;;42.03;17.73;;;;;;;9.15;100.00;100637.59;5040852;28;20116;-85
2022/11/15 06:54:23;;;;;;;36.13;16.93;;;;;;;9.20;100.00;100651.03;5050601;28;20106;-84
2022/11/15 06:56:48;;;;;;;36.63;16.53;;;;;;;9.16;100.00;100651.78;5052036;28;20021;-85
2022/11/15 06:59:13;;;;;;;34.90;15.98;;;;;;;9.10;100.00;100648.25;5046703;28;20090;-85
2022/11/15 07:01:38;;;;;;;29.87;15.10;;;;;;;9.08;100.00;100650.38;5050424;28;20061;-86
2022/11/15 07:04:04;;;;;;;26.53;15.00;;;;;;;9.07;100.00;100649.56;5051006;28;20461;-86
2022/11/15 07:06:29;;;;;;;30.73;14.70;;;;;;;9.03;100.00;100661.84;5050891;28;20029;-86
2022/11/15 07:08:54;;;;;;;33.47;14.13;;;;;;;9.00;100.00;100656.16;5051399;28;20044;-85
2022/11/15 07:11:20;;;;;;;32.77;14.30;;;;;;;9.01;100.00;100663.13;5050247;28;20656;-85
2022/11/15 07:13:45;;;;;;;31.43;14.13;;;;;;;8.94;100.00;100658.81;5041830;28;20040;-85
2022/11/15 07:16:14;;;;;;;28.40;13.95;;;;;;;8.99;100.00;100660.72;5048930;28;20061;-86
2022/11/15 07:18:40;;;;;;;31.30;14.40;;;;;;;9.01;100.00;100671.13;5037421;28;20024;-85
2022/11/15 07:21:09;;;;;;;28.23;13.88;;;;;;;8.99;100.00;100662.56;5050597;28;20045;-85
2022/11/15 07:23:39;;;;;;;32.97;14.15;;;;;;;8.99;100.00;100668.72;5049934;28;20037;-85
2022/11/15 07:26:08;;;;;;;35.20;14.30;;;;;;;9.01;100.00;100668.47;5050502;28;20458;-85
2022/11/15 07:28:33;;;;;;;28.88;13.15;;;;;;;9.05;100.00;100678.41;5048509;28;20095;-86
2022/11/15 07:31:02;;;;;;;29.85;13.88;;;;;;;9.04;100.00;100673.31;5043553;28;20037;-86
2022/11/15 07:33:28;;;;;;;35.70;14.73;;;;;;;9.01;100.00;100673.81;5043213;28;20021;-86
2022/11/15 07:35:53;;;;;;;33.83;14.93;;;;;;;9.06;100.00;100680.03;5043939;28;20368;-85
2022/11/15 07:38:19;;;;;;;35.97;15.50;;;;;;;9.04;100.00;100668.78;5046842;28;20439;-87
2022/11/15 07:40:55;;;;;;;28.98;14.80;;;;;;;9.09;100.00;100657.34;5045412;28;20031;-86
2022/11/15 07:43:20;;;;;;;92.20;17.53;;;;;;;9.14;100.00;100669.94;5049982;28;20483;-86
2022/11/15 07:45:45;;;;;;;33.97;15.88;;;;;;;9.17;100.00;100666.78;5050067;28;20029;-86
2022/11/15 07:48:11;;;;;;;46.40;21.47;;;;;;;9.17;100.00;100659.53;5047396;28;20120;-85
2022/11/15 07:50:41;;;;;;;44.00;19.45;;;;;;;9.15;100.00;100650.97;5032366;28;20087;-85
2022/11/15 07:53:11;;;;;;;57.25;25.95;;;;;;;9.16;100.00;100659.81;5049015;28;20531;-85
2022/11/15 07:55:37;;;;;;;40.17;18.03;;;;;;;9.20;100.00;100658.25;5050554;28;20033;-86
2022/11/15 07:58:04;;;;;;;34.50;18.33;;;;;;;9.18;100.00;100658.50;5050786;28;20762;-86
2022/11/15 08:00:32;;;;;;;28.13;14.07;;;;;;;9.24;100.00;100654.81;5048837;28;20029;-85
2022/11/15 08:08:10;;;;;;;41.60;24.15;;;;;;;9.14;100.00;100664.59;5926263;22;20056;-83
2022/11/15 08:10:36;;;;;;;27.88;14.65;;;;;;;9.08;100.00;100675.22;5050782;28;20081;-84
2022/11/15 08:13:04;;;;;;;25.23;13.95;;;;;;;9.13;100.00;100689.72;5070630;28;20422;-85
2022/11/15 08:15:30;;;;;;;27.25;12.80;;;;;;;9.17;100.00;100686.28;5054917;28;20082;-85
2022/11/15 08:17:58;;;;;;;23.57;11.73;;;;;;;9.28;100.00;100675.72;5049040;28;20116;-86
2022/11/15 08:20:25;;;;;;;27.27;13.00;;;;;;;9.36;100.00;100686.75;5049601;28;20291;-85
2022/11/15 08:22:51;;;;;;;24.95;11.77;;;;;;;9.34;100.00;100674.69;5056973;28;20070;-85
2022/11/15 08:25:17;;;;;;;24.30;12.77;;;;;;;9.32;100.00;100671.44;5046647;28;20049;-86
2022/11/15 08:27:43;;;;;;;19.17;11.67;;;;;;;9.27;100.00;100674.09;5050492;28;20033;-85
2022/11/15 08:30:11;;;;;;;22.55;12.35;;;;;;;9.18;100.00;100679.09;5048598;28;20093;-86
2022/11/15 08:32:36;;;;;;;23.88;12.02;;;;;;;9.10;100.00;100664.31;5056023;28;20024;-86
2022/11/15 08:35:02;;;;;;;23.93;13.43;;;;;;;9.17;100.00;100672.13;5069798;28;20110;-85
2022/11/15 08:37:28;;;;;;;20.63;10.80;;;;;;;9.17;100.00;100670.25;5048190;28;20522;-85
2022/11/15 08:39:53;;;;;;;19.90;10.80;;;;;;;9.21;100.00;100657.19;5029176;28;20060;-84
2022/11/15 08:42:18;;;;;;;22.53;11.00;;;;;;;9.18;100.00;100649.69;5055253;28;20016;-84
2022/11/15 08:44:44;;;;;;;22.40;10.50;;;;;;;9.26;100.00;100646.53;5066095;28;20029;-85
2022/11/15 08:47:23;;;;;;;22.92;10.20;;;;;;;9.15;100.00;100642.94;5062448;28;20032;-85
2022/11/15 08:49:55;;;;;;;21.43;9.27;;;;;;;9.26;100.00;100651.09;5066426;28;20113;-86
2022/11/15 08:52:23;;;;;;;17.40;10.07;;;;;;;9.24;100.00;100643.31;5057892;28;20389;-85
2022/11/15 08:54:49;;;;;;;14.93;9.18;;;;;;;9.26;100.00;100646.53;5074693;28;20044;-84
2022/11/15 08:57:14;;;;;;;15.77;9.10;;;;;;;9.25;100.00;100631.53;5052348;28;20424;-85
2022/11/15 08:59:40;;;;;;;18.70;9.30;;;;;;;9.37;100.00;100650.09;5045757;28;20022;-84
2022/11/15 09:02:05;;;;;;;14.93;7.83;;;;;;;9.37;100.00;100644.75;5033908;28;20090;-84
2022/11/15 09:04:31;;;;;;;12.80;7.70;;;;;;;9.28;100.00;100628.38;5053208;28;20067;-85
2022/11/15 09:06:56;;;;;;;10.60;6.70;;;;;;;9.30;100.00;100634.28;5053913;28;20037;-85
2022/11/15 09:09:23;;;;;;;10.63;6.10;;;;;;;9.29;100.00;100637.22;5052099;28;20104;-83
2022/11/15 09:11:49;;;;;;;12.52;6.57;;;;;;;9.26;100.00;100635.84;5059112;28;20036;-87
2022/11/15 09:14:15;;;;;;;18.98;8.90;;;;;;;9.21;100.00;100607.19;5062686;28;20037;-87
2022/11/15 09:16:42;;;;;;;15.55;8.23;;;;;;;9.31;100.00;100605.69;5065197;28;20031;-85
2022/11/15 09:19:07;;;;;;;18.02;8.73;;;;;;;9.46;100.00;100626.38;5054343;28;20447;-85
2022/11/15 09:21:34;;;;;;;22.07;11.33;;;;;;;9.51;100.00;100610.38;5067971;28;20028;-85
2022/11/15 09:24:00;;;;;;;22.25;10.23;;;;;;;9.52;100.00;100612.00;5070002;28;20028;-85
2022/11/15 09:26:25;;;;;;;12.83;8.03;;;;;;;9.67;100.00;100614.00;5069165;28;20029;-85
2022/11/15 09:28:50;;;;;;;13.63;7.57;;;;;;;9.77;100.00;100608.69;5063096;28;20240;-85
2022/11/15 09:31:16;;;;;;;7.87;6.17;;;;;;;9.85;100.00;100594.03;5030937;28;20025;-85
2022/11/15 09:33:44;;;;;;;9.40;6.05;;;;;;;9.83;100.00;100605.00;5048737;28;20381;-85
2022/11/15 09:36:12;;;;;;;7.87;5.00;;;;;;;9.89;100.00;100611.19;5067489;28;20028;-85
2022/11/15 09:38:37;;;;;;;6.80;4.13;;;;;;;9.94;100.00;100607.72;5055438;28;20295;-85
2022/11/15 09:41:17;;;;;;;8.05;5.03;;;;;;;10.02;100.00;100601.91;5052582;28;20656;-85
2022/11/15 09:44:08;;;;;;;8.43;4.38;;;;;;;10.08;100.00;100611.53;5053113;28;20508;-85
2022/11/15 09:46:53;;;;;;;5.72;4.05;;;;;;;10.03;100.00;100608.88;5052715;28;20032;-85
2022/11/15 09:49:18;;;;;;;5.68;4.00;;;;;;;9.94;100.00;100605.06;5032830;28;20048;-85
2022/11/15 09:51:50;;;;;;;6.00;3.53;;;;;;;9.84;100.00;100603.13;5067816;28;20695;-85
2022/11/15 09:54:34;;;;;;;6.05;2.88;;;;;;;9.80;100.00;100596.66;5071759;28;20051;-85
2022/11/15 09:57:31;;;;;;;4.65;2.40;;;;;;;9.79;100.00;100603.91;5068873;28;20047;-86
2022/11/15 10:00:08;;;;;;;5.85;1.85;;;;;;;9.74;100.00;100605.75;5052741;28;20373;-87
2022/11/15 10:03:07;;;;;;;5.80;1.73;;;;;;;9.73;100.00;100602.25;5053687;28;20439;-86
2022/11/15 10:05:39;;;;;;;3.35;1.65;;;;;;;9.73;100.00;100602.25;5056164;28;20025;-86
2022/11/15 10:08:28;;;;;;;4.53;1.43;;;;;;;9.78;100.00;100599.59;5059041;28;20103;-86
2022/11/15 10:11:25;;;;;;;3.73;1.30;;;;;;;9.70;100.00;100592.88;5052185;28;20848;-86
2022/11/15 10:13:52;;;;;;;7.20;1.33;;;;;;;9.69;100.00;100585.91;5049727;28;20056;-86
2022/11/15 10:16:45;;;;;;;5.65;1.17;;;;;;;9.80;100.00;100594.81;5034483;28;20078;-86
2022/11/15 10:19:10;;;;;;;4.55;0.85;;;;;;;9.81;100.00;100587.56;5051986;28;20082;-85
2022/11/15 10:22:04;;;;;;;3.70;0.70;;;;;;;9.82;100.00;100586.50;5051998;28;20434;-86
2022/11/15 10:24:39;;;;;;;7.25;0.82;;;;;;;9.78;100.00;100585.41;5051391;28;20041;-86
2022/11/15 10:27:14;;;;;;;2.28;0.90;;;;;;;9.74;100.00;100585.13;5051501;28;20465;-86
2022/11/15 10:29:50;;;;;;;3.30;0.93;;;;;;;9.79;100.00;100590.50;5051650;28;20361;-86
2022/11/15 10:32:18;;;;;;;4.40;0.90;;;;;;;9.77;100.00;100570.44;5051878;28;20029;-85
2022/11/15 10:34:44;;;;;;;3.25;0.90;;;;;;;9.78;100.00;100572.03;5052260;28;20078;-86
2022/11/15 10:37:10;;;;;;;4.60;1.10;;;;;;;9.76;100.00;100558.13;5050330;28;21628;-86
2022/11/15 10:39:35;;;;;;;4.77;0.90;;;;;;;9.88;100.00;100558.72;5055896;28;20314;-86
2022/11/15 10:42:27;;;;;;;3.87;0.90;;;;;;;9.95;100.00;100556.59;5071597;28;20032;-87
2022/11/15 10:44:53;;;;;;;4.60;0.75;;;;;;;10.02;100.00;100559.06;5062817;28;20095;-86
2022/11/15 10:47:30;;;;;;;3.65;0.80;;;;;;;10.04;100.00;100543.56;5047861;28;20026;-87
2022/11/15 10:50:34;;;;;;;4.20;0.80;;;;;;;10.14;100.00;100542.75;5031729;28;20021;-87
2022/11/15 10:53:02;;;;;;;4.45;0.70;;;;;;;10.13;100.00;100536.63;5036294;28;20064;-86
2022/11/15 10:55:31;;;;;;;3.83;0.90;;;;;;;10.21;99.26;100542.53;5051372;28;20529;-87
2022/11/15 10:58:25;;;;;;;6.70;1.30;;;;;;;10.29;97.98;100542.84;5051437;28;20044;-85
2022/11/15 11:00:53;;;;;;;2.40;0.65;;;;;;;10.33;97.86;100547.66;5033375;28;20476;-86
2022/11/15 11:04:09;;;;;;;3.93;1.10;;;;;;;10.43;96.62;100539.69;5051226;28;20033;-87
2022/11/15 11:06:57;;;;;;;3.97;0.97;;;;;;;10.49;97.45;100535.16;5009648;28;20286;-87
2022/11/15 11:09:28;;;;;;;2.95;1.05;;;;;;;10.53;96.73;100533.56;5059310;28;20060;-87
2022/11/15 11:11:54;;;;;;;3.42;0.90;;;;;;;10.53;95.34;100530.88;5075801;28;20073;-87
2022/11/15 11:14:32;;;;;;;5.13;1.00;;;;;;;10.57;93.98;100534.66;5072139;28;20116;-87
2022/11/15 11:17:05;;;;;;;6.53;0.95;;;;;;;10.60;94.10;100526.06;5071847;28;20025;-88
2022/11/15 11:19:57;;;;;;;4.10;0.90;;;;;;;10.65;94.81;100518.03;5031561;28;20026;-87
2022/11/15 11:22:47;;;;;;;7.83;1.17;;;;;;;10.60;94.44;100509.97;5003112;28;20344;-87
2022/11/15 11:25:26;;;;;;;3.55;1.30;;;;;;;10.58;94.24;100504.91;5036014;28;20060;-86
2022/11/15 11:28:13;;;;;;;3.90;1.33;;;;;;;10.62;93.36;100497.13;5048088;28;20032;-86
2022/11/15 11:30:41;;;;;;;8.57;1.30;;;;;;;10.64;93.13;100495.00;5047236;28;20033;-86
2022/11/15 11:33:10;;;;;;;6.88;1.30;;;;;;;10.65;92.76;100487.78;5049082;28;20029;-87
2022/11/15 11:35:58;;;;;;;4.43;1.02;;;;;;;10.70;93.80;100480.53;5055329;28;20040;-87
2022/11/15 11:39:11;;;;;;;3.75;1.27;;;;;;;10.76;94.69;100473.28;5055560;28;20098;-87